Time;durP1;ratioP1;P1;durP2;ratioP2;P2;SDS_P1;SDS_P2;PMS_P1;PMS_P2;Temp;Humidity;BMP_temperature;BMP_pressure;BME280_temperature;BME280_humidity;BME280_pressure;Samples;Min_cycle;Max_cycle;Signal;HPM_P1;HPM_P2
2024/01/18 15:09:08;;;;;;;;;;;4.60;99.90;;;;;;5052926;28;19993;-96
2024/01/18 15:11:35;;;;;;;;;;;4.50;99.90;;;;;;5033904;28;19913;-94
2024/01/18 15:14:00;;;;;;;;;;;4.60;99.90;;;;;;5034879;28;19915;-96
2024/01/18 15:16:26;;;;;;;;;;;4.70;99.90;;;;;;5034010;28;20276;-95
2024/01/18 15:18:52;;;;;;;;;;;4.80;99.90;;;;;;5035532;28;19909;-95
2024/01/18 15:21:17;;;;;;;;;;;4.90;99.90;;;;;;5034028;28;20277;-94
2024/01/18 15:23:43;;;;;;;;;;;5.00;99.90;;;;;;5033786;28;19909;-91
2024/01/18 15:26:08;;;;;;;;;;;5.10;99.90;;;;;;5033585;28;20004;-92
2024/01/18 15:28:38;;;;;;;;;;;5.10;99.90;;;;;;5033626;28;19913;-92
2024/01/18 15:31:04;;;;;;;;;;;5.20;99.90;;;;;;5034079;28;19959;-91
2024/01/18 15:33:29;;;;;;;;;;;5.20;99.90;;;;;;5034053;28;20307;-95
2024/01/18 15:35:56;;;;;;;;;;;5.30;99.90;;;;;;5034558;28;20346;-92
2024/01/18 15:38:22;;;;;;;;;;;5.30;99.90;;;;;;5033389;28;20285;-94
2024/01/18 15:40:47;;;;;;;;;;;5.30;99.90;;;;;;5051462;28;19909;-92
2024/01/18 15:43:13;;;;;;;;;;;5.40;99.90;;;;;;5033313;28;19909;-91
2024/01/18 15:45:40;;;;;;;;;;;5.40;99.90;;;;;;5033416;28;19920;-94
2024/01/18 15:48:06;;;;;;;;;;;5.40;99.90;;;;;;5033137;28;20280;-96
2024/01/18 15:50:32;;;;;;;;;;;5.40;99.90;;;;;;5033168;28;19913;-93
2024/01/18 15:52:58;;;;;;;;;;;5.40;99.90;;;;;;5033181;28;20312;-91
2024/01/18 15:55:23;;;;;;;;;;;5.40;99.90;;;;;;5033099;28;20376;-93
2024/01/18 15:57:50;;;;;;;;;;;5.50;99.90;;;;;;5033015;28;19916;-94
2024/01/18 16:00:15;;;;;;;;;;;5.40;99.90;;;;;;5032837;28;19949;-93
2024/01/18 16:02:41;;;;;;;;;;;5.40;99.90;;;;;;5050469;28;19942;-94
2024/01/18 16:05:06;;;;;;;;;;;5.40;99.90;;;;;;5033105;28;19909;-92
2024/01/18 16:07:32;;;;;;;;;;;5.40;99.90;;;;;;5032498;28;19925;-93
2024/01/18 16:09:58;;;;;;;;;;;5.40;99.90;;;;;;5032805;28;19909;-95
2024/01/18 16:12:23;;;;;;;;;;;5.40;99.90;;;;;;5032580;28;19909;-94
2024/01/18 16:14:49;;;;;;;;;;;5.40;99.90;;;;;;5033503;28;20266;-94
2024/01/18 16:17:14;;;;;;;;;;;5.50;99.90;;;;;;5033570;28;20380;-92
2024/01/18 16:19:40;;;;;;;;;;;5.50;99.90;;;;;;5023714;28;20384;-93
2024/01/18 16:22:05;;;;;;;;;;;5.50;99.90;;;;;;5019292;28;20011;-92
2024/01/18 16:24:31;;;;;;;;;;;5.50;99.90;;;;;;5019261;28;19910;-94
2024/01/18 16:26:57;;;;;;;;;;;5.50;99.90;;;;;;5020320;28;19913;-94
2024/01/18 16:29:24;;;;;;;;;;;5.50;99.90;;;;;;5019136;28;20388;-92
2024/01/18 16:31:51;;;;;;;;;;;5.50;99.90;;;;;;5018977;28;20262;-92
2024/01/18 16:34:16;;;;;;;;;;;5.50;99.90;;;;;;5036727;28;19945;-92
2024/01/18 16:36:42;;;;;;;;;;;5.50;99.90;;;;;;5018870;28;19910;-93
2024/01/18 16:39:08;;;;;;;;;;;5.50;99.90;;;;;;5018921;28;19909;-93
2024/01/18 16:41:34;;;;;;;;;;;5.50;99.90;;;;;;5018946;28;19915;-92
2024/01/18 16:44:00;;;;;;;;;;;5.50;99.90;;;;;;5036447;28;20107;-93
2024/01/18 16:46:25;;;;;;;;;;;5.60;99.90;;;;;;5019013;28;19909;-94
2024/01/18 16:48:51;;;;;;;;;;;5.60;99.90;;;;;;5008744;28;19918;-95
2024/01/18 16:51:16;;;;;;;;;;;5.50;99.90;;;;;;4999258;28;19909;-93
2024/01/18 16:53:43;;;;;;;;;;;5.50;99.90;;;;;;4999745;28;19925;-94
2024/01/18 16:56:09;;;;;;;;;;;5.50;99.90;;;;;;5000036;28;19916;-93
2024/01/18 17:25:54;;;;;;;;;;;5.00;99.90;;;;;;5072391;28;19966;-94
2024/01/18 17:28:19;;;;;;;;;;;5.00;99.90;;;;;;5053485;28;19917;-95
2024/01/18 17:30:45;;;;;;;;;;;5.00;99.90;;;;;;5053541;28;19919;-94
2024/01/18 17:33:10;;;;;;;;;;;5.00;99.90;;;;;;5053569;28;19909;-92
2024/01/18 17:35:36;;;;;;;;;;;5.10;99.90;;;;;;5053480;28;19995;-91
2024/01/18 17:38:02;;;;;;;;;;;5.10;99.90;;;;;;5053716;28;19916;-93
2024/01/18 17:40:28;;;;;;;;;;;5.20;99.90;;;;;;5071241;28;19909;-94
2024/01/18 17:42:53;;;;;;;;;;;5.30;99.90;;;;;;5053357;28;19916;-96
2024/01/18 17:45:19;;;;;;;;;;;5.30;99.90;;;;;;5053187;28;19936;-93
2024/01/18 17:47:44;;;;;;;;;;;5.40;99.90;;;;;;5071088;28;19916;-93
2024/01/18 17:50:10;;;;;;;;;;;5.40;99.90;;;;;;5053225;28;19954;-93
2024/01/18 17:52:38;;;;;;;;;;;5.40;99.90;;;;;;5071323;28;19913;-93
2024/01/18 17:55:07;;;;;;;;;;;5.50;99.90;;;;;;5072226;28;20001;-90
2024/01/18 17:57:32;;;;;;;;;;;5.50;99.90;;;;;;5058723;28;20354;-92
2024/01/18 17:59:58;;;;;;;;;;;5.50;99.90;;;;;;5057395;28;19916;-91
2024/01/18 18:02:23;;;;;;;;;;;5.50;99.90;;;;;;5053171;28;20420;-92
2024/01/18 18:04:49;;;;;;;;;;;5.50;99.90;;;;;;5052967;28;19913;-93
2024/01/18 18:07:16;;;;;;;;;;;5.60;99.90;;;;;;5053015;28;20254;-92
2024/01/18 18:09:42;;;;;;;;;;;5.50;99.90;;;;;;5052923;28;19944;-92
2024/01/18 18:12:07;;;;;;;;;;;5.60;99.90;;;;;;5053061;28;19931;-92
2024/01/18 18:14:33;;;;;;;;;;;5.60;99.90;;;;;;5052783;28;19909;-91
2024/01/18 18:16:58;;;;;;;;;;;5.60;99.90;;;;;;5052761;28;19916;-91
2024/01/18 18:19:24;;;;;;;;;;;5.60;99.90;;;;;;5052981;28;20277;-93
2024/01/18 18:21:49;;;;;;;;;;;5.50;99.90;;;;;;5070513;28;19916;-91
2024/01/18 18:24:16;;;;;;;;;;;5.50;99.90;;;;;;5052388;28;19979;-91
2024/01/18 18:26:42;;;;;;;;;;;5.50;99.90;;;;;;5070356;28;19999;-93
2024/01/18 18:29:09;;;;;;;;;;;5.50;99.90;;;;;;5052476;28;20042;-91
2024/01/18 18:31:34;;;;;;;;;;;5.50;99.90;;;;;;5053242;28;19908;-92
2024/01/18 18:34:00;;;;;;;;;;;5.50;99.90;;;;;;5052294;28;19931;-92
2024/01/18 18:36:25;;;;;;;;;;;5.50;99.90;;;;;;5043698;28;19963;-93
2024/01/18 18:38:51;;;;;;;;;;;5.50;99.90;;;;;;5037846;28;19916;-91
2024/01/18 18:41:16;;;;;;;;;;;5.50;99.90;;;;;;5039909;28;19963;-92
2024/01/18 18:43:42;;;;;;;;;;;5.40;99.90;;;;;;5038930;28;19909;-91
2024/01/18 18:46:08;;;;;;;;;;;5.40;99.90;;;;;;5039035;28;20008;-92
2024/01/18 18:48:33;;;;;;;;;;;5.40;99.90;;;;;;5039069;28;19913;-91
2024/01/18 18:50:59;;;;;;;;;;;5.40;99.90;;;;;;5038950;28;19916;-91
2024/01/18 18:53:25;;;;;;;;;;;5.40;99.90;;;;;;5038941;28;19909;-90
2024/01/18 18:55:50;;;;;;;;;;;5.40;99.90;;;;;;5038806;28;20043;-91
2024/01/18 18:58:16;;;;;;;;;;;5.40;99.90;;;;;;5038775;28;20276;-92
2024/01/18 19:00:41;;;;;;;;;;;5.40;99.90;;;;;;5038832;28;20025;-91
2024/01/18 19:03:07;;;;;;;;;;;5.40;99.90;;;;;;5038600;28;19908;-92
2024/01/18 19:05:32;;;;;;;;;;;5.40;99.90;;;;;;5038607;28;19913;-92
2024/01/18 19:07:59;;;;;;;;;;;5.30;99.90;;;;;;5038735;28;20373;-92
2024/01/18 19:10:24;;;;;;;;;;;5.30;99.90;;;;;;5038441;28;19912;-90
2024/01/18 19:12:50;;;;;;;;;;;5.30;99.90;;;;;;5038419;28;20376;-91
2024/01/18 19:15:15;;;;;;;;;;;5.30;99.90;;;;;;5038315;28;20280;-92
2024/01/18 19:17:40;;;;;;;;;;;5.30;99.90;;;;;;5038173;28;19913;-91
2024/01/18 19:20:06;;;;;;;;;;;5.30;99.90;;;;;;5038221;28;19909;-93
2024/01/18 19:22:32;;;;;;;;;;;5.30;99.90;;;;;;5038116;28;20277;-91
2024/01/18 19:24:58;;;;;;;;;;;5.30;99.90;;;;;;5037861;28;20008;-92
2024/01/18 19:27:26;;;;;;;;;;;5.30;99.90;;;;;;5038005;28;19909;-92
2024/01/18 19:29:52;;;;;;;;;;;5.30;99.90;;;;;;5037986;28;19909;-92
2024/01/18 19:32:17;;;;;;;;;;;5.30;99.90;;;;;;5038061;28;19916;-93
